Time;durP1;ratioP1;P1;durP2;ratioP2;P2;SDS_P1;SDS_P2;PMS_P1;PMS_P2;Temp;Humidity;BMP_temperature;BMP_pressure;BME280_temperature;BME280_humidity;BME280_pressure;Samples;Min_cycle;Max_cycle;Signal;HPM_P1;HPM_P2
2022/12/31 00:01:25;;;;;;;;;22.00;18.33;;;;;;;;116716;1195;24684;-65
2022/12/31 00:03:55;;;;;;;;;22.00;19.00;;;;;;;;116763;1208;24687;-65
2022/12/31 00:06:24;;;;;;;;;20.50;14.00;;;;;;;;116811;1203;25369;-66
2022/12/31 00:08:54;;;;;;;;;20.50;17.50;;;;;;;;116707;1200;24981;-65
2022/12/31 00:11:23;;;;;;;;;18.50;12.50;;;;;;;;116724;1203;25767;-65
2022/12/31 00:13:52;;;;;;;;;22.75;17.50;;;;;;;;116821;1197;24950;-65
2022/12/31 00:16:23;;;;;;;;;20.00;16.00;;;;;;;;116814;1203;24935;-65
2022/12/31 00:18:53;;;;;;;;;24.00;17.50;;;;;;;;116777;1197;24749;-65
2022/12/31 00:21:22;;;;;;;;;21.00;18.00;;;;;;;;116776;1203;24884;-65
2022/12/31 00:23:50;;;;;;;;;16.33;16.33;;;;;;;;116705;1195;24870;-65
2022/12/31 00:26:20;;;;;;;;;20.50;18.00;;;;;;;;116791;1200;25421;-65
2022/12/31 00:28:49;;;;;;;;;21.67;18.33;;;;;;;;116783;1195;25399;-65
2022/12/31 00:31:25;;;;;;;;;19.50;18.50;;;;;;;;116727;1199;24728;-65
2022/12/31 00:33:53;;;;;;;;;20.00;16.00;;;;;;;;116756;1195;25041;-65
2022/12/31 00:36:25;;;;;;;;;16.00;15.00;;;;;;;;116794;1196;24922;-65
2022/12/31 00:38:55;;;;;;;;;17.33;14.00;;;;;;;;116775;1208;25132;-66
2022/12/31 00:41:24;;;;;;;;;20.00;17.00;;;;;;;;116822;1196;24677;-65
2022/12/31 00:43:52;;;;;;;;;22.50;19.00;;;;;;;;116800;1193;25437;-65
2022/12/31 00:46:21;;;;;;;;;16.33;10.33;;;;;;;;116775;1198;24994;-65
2022/12/31 00:48:50;;;;;;;;;22.50;20.00;;;;;;;;116786;1203;25108;-65
2022/12/31 00:51:21;;;;;;;;;25.00;20.00;;;;;;;;116825;1200;26165;-65
2022/12/31 00:53:49;;;;;;;;;17.00;17.00;;;;;;;;116786;1193;25537;-65
2022/12/31 00:56:20;;;;;;;;;18.00;17.00;;;;;;;;116804;1206;25066;-65
2022/12/31 00:58:49;;;;;;;;;19.50;16.00;;;;;;;;116815;1206;25571;-65
2022/12/31 01:01:37;;;;;;;;;25.00;20.00;;;;;;;;116763;1197;25224;-65
2022/12/31 01:04:12;;;;;;;;;20.75;16.75;;;;;;;;116733;1208;24891;-65
2022/12/31 01:06:41;;;;;;;;;14.00;13.50;;;;;;;;116757;1203;24728;-65
2022/12/31 01:09:11;;;;;;;;;22.00;20.00;;;;;;;;116803;1200;24693;-65
2022/12/31 01:11:40;;;;;;;;;22.00;19.00;;;;;;;;116806;1200;25506;-65
2022/12/31 01:14:14;;;;;;;;;19.00;19.00;;;;;;;;116718;1196;25334;-66
2022/12/31 01:16:45;;;;;;;;;19.33;17.00;;;;;;;;116747;1208;25668;-65
2022/12/31 01:19:25;;;;;;;;;23.00;20.67;;;;;;;;116704;1203;25318;-65
2022/12/31 01:21:54;;;;;;;;;18.67;16.00;;;;;;;;116802;1197;25356;-65
2022/12/31 01:24:23;;;;;;;;;19.33;14.33;;;;;;;;116773;1207;25417;-65
2022/12/31 01:26:51;;;;;;;;;21.33;19.33;;;;;;;;116814;1196;25039;-65
2022/12/31 01:29:19;;;;;;;;;17.00;14.00;;;;;;;;116728;1203;25715;-65
2022/12/31 01:31:48;;;;;;;;;24.50;21.00;;;;;;;;116769;1196;25521;-65
2022/12/31 01:34:16;;;;;;;;;21.67;19.67;;;;;;;;116710;1190;25139;-65
2022/12/31 01:36:44;;;;;;;;;17.50;17.00;;;;;;;;116749;1203;25635;-65
2022/12/31 01:39:12;;;;;;;;;17.00;16.00;;;;;;;;116725;1197;25300;-65
2022/12/31 01:41:43;;;;;;;;;22.00;18.00;;;;;;;;116774;1203;25341;-65
2022/12/31 01:44:11;;;;;;;;;16.00;16.00;;;;;;;;116816;1200;25586;-65
2022/12/31 01:46:45;;;;;;;;;19.50;18.00;;;;;;;;116756;1197;25018;-65
2022/12/31 01:49:37;;;;;;;;;19.00;16.00;;;;;;;;116745;1203;24715;-65
2022/12/31 01:52:08;;;;;;;;;24.00;24.00;;;;;;;;116698;1193;25620;-65
2022/12/31 01:54:47;;;;;;;;;24.00;21.00;;;;;;;;116741;1197;24908;-65
2022/12/31 01:57:16;;;;;;;;;25.00;22.00;;;;;;;;116711;1199;24693;-65
2022/12/31 01:59:44;;;;;;;;;22.33;19.67;;;;;;;;116762;1203;25210;-65
2022/12/31 02:02:14;;;;;;;;;21.00;20.00;;;;;;;;116775;1198;25279;-65
2022/12/31 02:04:42;;;;;;;;;27.00;23.00;;;;;;;;116796;1200;25582;-65
2022/12/31 02:07:11;;;;;;;;;21.00;19.00;;;;;;;;116786;1200;25495;-65
2022/12/31 02:09:41;;;;;;;;;20.00;17.00;;;;;;;;116762;1197;25509;-65
2022/12/31 02:12:09;;;;;;;;;27.33;19.33;;;;;;;;116753;1200;25923;-64
2022/12/31 02:14:41;;;;;;;;;15.50;15.50;;;;;;;;116807;1199;25623;-65
2022/12/31 02:17:22;;;;;;;;;12.67;12.67;;;;;;;;116801;1208;25047;-64
2022/12/31 02:20:12;;;;;;;;;20.50;15.00;;;;;;;;116712;1203;25211;-64
2022/12/31 02:23:02;;;;;;;;;25.50;21.50;;;;;;;;116729;1203;25628;-65
2022/12/31 02:25:42;;;;;;;;;22.00;18.00;;;;;;;;117078;1201;25202;-65
2022/12/31 02:28:29;;;;;;;;;17.33;17.33;;;;;;;;116777;1196;26828;-65
2022/12/31 02:31:17;;;;;;;;;20.33;18.00;;;;;;;;116735;1200;25259;-65
2022/12/31 02:33:57;;;;;;;;;19.00;18.00;;;;;;;;116785;1200;26053;-64
2022/12/31 02:36:31;;;;;;;;;22.00;18.67;;;;;;;;116789;1196;24976;-65
2022/12/31 02:39:00;;;;;;;;;24.00;20.00;;;;;;;;116796;1195;25220;-64
2022/12/31 02:44:28;;;;;;;;;22.00;18.50;;;;;;;;116726;1205;25549;-64
2022/12/31 02:47:12;;;;;;;;;15.00;10.00;;;;;;;;116737;1197;25424;-64
2022/12/31 02:50:16;;;;;;;;;18.33;18.00;;;;;;;;116799;1199;25294;-65
2022/12/31 02:52:57;;;;;;;;;19.00;15.00;;;;;;;;116799;1200;24999;-64
2022/12/31 02:55:55;;;;;;;;;19.33;16.67;;;;;;;;116797;1193;24703;-65
2022/12/31 03:04:31;;;;;;;;;21.00;20.00;;;;;;;;116768;1199;24692;-65
2022/12/31 03:07:03;;;;;;;;;18.50;16.50;;;;;;;;116787;1198;25020;-65
2022/12/31 03:09:31;;;;;;;;;21.00;18.00;;;;;;;;116814;1203;25112;-65
2022/12/31 03:14:47;;;;;;;;;23.50;18.50;;;;;;;;116801;1198;24763;-65
2022/12/31 03:17:16;;;;;;;;;19.67;18.67;;;;;;;;116801;1200;24987;-65
2022/12/31 03:22:35;;;;;;;;;17.50;17.00;;;;;;;;116760;1196;24984;-65
2022/12/31 03:27:54;;;;;;;;;20.00;19.00;;;;;;;;116733;1199;25170;-65
2022/12/31 03:30:23;;;;;;;;;20.00;18.00;;;;;;;;116744;1196;25176;-65
2022/12/31 03:32:52;;;;;;;;;19.50;17.50;;;;;;;;116790;1200;25496;-65
2022/12/31 03:35:21;;;;;;;;;21.00;18.00;;;;;;;;116805;1200;26357;-65
2022/12/31 03:37:50;;;;;;;;;21.00;17.00;;;;;;;;116802;1190;24820;-65
2022/12/31 03:40:20;;;;;;;;;17.00;15.00;;;;;;;;116794;1206;25528;-65
2022/12/31 03:42:49;;;;;;;;;14.50;11.00;;;;;;;;116868;1195;25532;-64
2022/12/31 03:45:17;;;;;;;;;26.00;20.50;;;;;;;;116768;1189;24866;-65
2022/12/31 03:47:46;;;;;;;;;24.50;21.50;;;;;;;;116778;1198;24775;-65
2022/12/31 03:50:16;;;;;;;;;24.00;18.33;;;;;;;;116810;1206;25519;-65
2022/12/31 03:52:44;;;;;;;;;23.00;18.00;;;;;;;;116775;1200;25077;-65
2022/12/31 03:55:13;;;;;;;;;23.00;16.00;;;;;;;;116727;1189;24999;-65
2022/12/31 03:57:42;;;;;;;;;21.00;18.50;;;;;;;;116789;1202;25554;-65
2022/12/31 04:00:13;;;;;;;;;21.00;17.00;;;;;;;;116745;1193;25004;-64
2022/12/31 04:02:41;;;;;;;;;23.67;18.67;;;;;;;;116770;1200;25352;-65
2022/12/31 04:05:11;;;;;;;;;20.00;20.00;;;;;;;;116742;1193;25314;-66
2022/12/31 04:07:39;;;;;;;;;28.50;21.50;;;;;;;;116756;1206;25242;-66
2022/12/31 04:10:09;;;;;;;;;20.50;19.50;;;;;;;;116798;1199;26409;-66
2022/12/31 04:12:38;;;;;;;;;19.00;15.75;;;;;;;;116721;1206;25096;-66
2022/12/31 04:15:08;;;;;;;;;19.00;16.33;;;;;;;;116712;1203;25603;-66
2022/12/31 04:17:36;;;;;;;;;20.00;16.00;;;;;;;;116777;1200;25214;-66
2022/12/31 04:20:05;;;;;;;;;18.00;15.00;;;;;;;;117072;1195;25429;-66
2022/12/31 04:22:33;;;;;;;;;16.00;15.00;;;;;;;;116737;1204;24856;-65
2022/12/31 04:25:02;;;;;;;;;24.00;19.00;;;;;;;;116703;1198;25016;-65
2022/12/31 04:27:30;;;;;;;;;26.00;18.00;;;;;;;;117094;1191;25224;-65
2022/12/31 04:29:59;;;;;;;;;22.00;17.00;;;;;;;;116770;1199;24741;-66
2022/12/31 04:32:27;;;;;;;;;26.00;19.00;;;;;;;;116766;1200;26375;-66
2022/12/31 04:34:55;;;;;;;;;20.00;20.00;;;;;;;;116783;1203;25612;-65
2022/12/31 04:37:23;;;;;;;;;20.50;18.50;;;;;;;;117054;1194;25164;-66
2022/12/31 04:39:52;;;;;;;;;20.50;19.00;;;;;;;;116763;1200;25028;-66
2022/12/31 04:42:20;;;;;;;;;21.50;16.50;;;;;;;;116768;1200;25953;-66
2022/12/31 04:44:48;;;;;;;;;22.00;18.50;;;;;;;;116811;1198;25619;-66
2022/12/31 04:47:16;;;;;;;;;18.50;15.50;;;;;;;;116749;1203;24861;-65
2022/12/31 04:49:50;;;;;;;;;20.00;19.00;;;;;;;;116732;1200;24972;-65
2022/12/31 04:52:19;;;;;;;;;21.00;18.00;;;;;;;;116756;1193;25046;-65
2022/12/31 04:54:47;;;;;;;;;23.00;21.33;;;;;;;;116732;1198;24811;-66
2022/12/31 04:57:15;;;;;;;;;22.00;18.33;;;;;;;;116718;1195;25568;-65
2022/12/31 04:59:43;;;;;;;;;21.00;18.00;;;;;;;;116781;1199;25093;-66
2022/12/31 05:02:12;;;;;;;;;21.50;19.50;;;;;;;;116750;1200;25240;-66
2022/12/31 05:04:40;;;;;;;;;21.33;20.00;;;;;;;;116788;1205;25848;-65
2022/12/31 05:07:09;;;;;;;;;16.33;16.33;;;;;;;;116756;1197;25112;-65
2022/12/31 05:09:37;;;;;;;;;20.50;18.00;;;;;;;;116777;1199;25590;-66
2022/12/31 05:12:05;;;;;;;;;22.67;17.00;;;;;;;;116775;1198;25552;-65
2022/12/31 05:14:33;;;;;;;;;18.00;17.33;;;;;;;;116766;1202;25250;-65
2022/12/31 05:17:02;;;;;;;;;25.00;19.50;;;;;;;;116824;1196;25388;-65
2022/12/31 05:19:30;;;;;;;;;22.00;20.00;;;;;;;;116754;1200;24802;-65
2022/12/31 05:24:45;;;;;;;;;20.00;18.00;;;;;;;;116722;1200;25274;-65
2022/12/31 05:27:13;;;;;;;;;20.50;17.50;;;;;;;;116760;1193;25348;-65
2022/12/31 05:29:41;;;;;;;;;21.00;21.00;;;;;;;;116761;1203;25150;-66
2022/12/31 05:32:09;;;;;;;;;19.67;17.67;;;;;;;;116807;1193;25613;-66
2022/12/31 05:34:38;;;;;;;;;19.25;19.25;;;;;;;;116749;1199;24703;-66
2022/12/31 05:37:06;;;;;;;;;22.00;20.00;;;;;;;;116743;1200;25672;-67
2022/12/31 05:39:34;;;;;;;;;16.33;16.00;;;;;;;;116735;1194;25062;-66
2022/12/31 05:42:03;;;;;;;;;17.33;16.33;;;;;;;;116741;1199;25383;-66
2022/12/31 05:44:31;;;;;;;;;21.50;18.00;;;;;;;;116747;1200;25351;-66
2022/12/31 05:46:59;;;;;;;;;23.00;22.00;;;;;;;;116758;1195;25125;-66
2022/12/31 05:49:28;;;;;;;;;23.67;21.67;;;;;;;;116737;1200;24842;-66
2022/12/31 05:51:56;;;;;;;;;22.00;17.00;;;;;;;;116770;1199;25014;-66
2022/12/31 05:54:24;;;;;;;;;21.33;19.33;;;;;;;;116770;1203;25270;-65
2022/12/31 05:56:52;;;;;;;;;20.00;15.00;;;;;;;;116746;1203;25612;-65
2022/12/31 05:59:21;;;;;;;;;18.00;18.00;;;;;;;;116794;1207;25712;-65
2022/12/31 06:01:49;;;;;;;;;23.00;20.00;;;;;;;;117069;1197;24761;-65
2022/12/31 06:04:17;;;;;;;;;25.50;21.50;;;;;;;;116793;1200;24797;-65
2022/12/31 06:06:45;;;;;;;;;20.50;17.00;;;;;;;;116758;1199;24790;-65
2022/12/31 06:09:15;;;;;;;;;22.00;17.00;;;;;;;;116762;1200;25521;-65
2022/12/31 06:11:43;;;;;;;;;25.00;21.00;;;;;;;;116791;1202;25215;-65
2022/12/31 06:14:12;;;;;;;;;22.00;20.00;;;;;;;;116768;1208;24842;-66
2022/12/31 06:16:41;;;;;;;;;20.00;19.00;;;;;;;;116801;1200;24734;-64
2022/12/31 06:19:09;;;;;;;;;20.67;18.00;;;;;;;;116755;1203;24809;-65
2022/12/31 06:21:37;;;;;;;;;22.33;20.33;;;;;;;;116815;1193;25343;-65
2022/12/31 06:24:06;;;;;;;;;22.50;17.50;;;;;;;;116732;1203;24850;-65
2022/12/31 06:26:34;;;;;;;;;23.00;21.00;;;;;;;;116745;1197;25128;-65
2022/12/31 06:29:02;;;;;;;;;20.00;18.50;;;;;;;;116757;1196;25637;-65
2022/12/31 06:31:31;;;;;;;;;20.33;17.67;;;;;;;;116735;1203;25637;-65
2022/12/31 06:33:59;;;;;;;;;16.00;11.00;;;;;;;;116754;1208;25281;-65
2022/12/31 06:36:27;;;;;;;;;21.25;19.75;;;;;;;;116747;1200;25114;-64
2022/12/31 06:38:56;;;;;;;;;26.00;23.00;;;;;;;;116733;1200;25012;-65
2022/12/31 06:41:24;;;;;;;;;21.00;18.00;;;;;;;;116756;1198;25602;-64
2022/12/31 06:43:52;;;;;;;;;26.00;22.67;;;;;;;;116787;1195;24788;-65
2022/12/31 06:46:20;;;;;;;;;23.00;22.00;;;;;;;;117056;1197;24744;-65
2022/12/31 06:48:49;;;;;;;;;30.33;24.00;;;;;;;;116809;1208;25593;-65
2022/12/31 06:51:20;;;;;;;;;30.50;24.50;;;;;;;;116742;1199;25064;-65
2022/12/31 06:53:50;;;;;;;;;24.00;19.00;;;;;;;;116822;1200;25955;-65
2022/12/31 06:56:27;;;;;;;;;23.33;21.33;;;;;;;;116811;1203;25055;-65
2022/12/31 06:59:02;;;;;;;;;25.50;21.00;;;;;;;;116761;1200;25141;-64
2022/12/31 07:01:54;;;;;;;;;27.00;23.00;;;;;;;;116787;1199;25059;-64
2022/12/31 07:04:41;;;;;;;;;24.50;19.00;;;;;;;;116793;1196;25293;-66
2022/12/31 07:07:27;;;;;;;;;22.00;21.00;;;;;;;;116732;1199;25302;-66
2022/12/31 07:10:23;;;;;;;;;23.33;18.00;;;;;;;;116753;1208;25263;-66
2022/12/31 07:13:22;;;;;;;;;22.00;20.00;;;;;;;;116708;1196;25506;-66
2022/12/31 07:16:02;;;;;;;;;29.00;23.00;;;;;;;;116748;1198;25062;-65
2022/12/31 07:18:45;;;;;;;;;22.67;18.33;;;;;;;;116776;1207;25675;-66
2022/12/31 07:21:16;;;;;;;;;20.00;19.33;;;;;;;;116716;1200;24767;-66
2022/12/31 07:23:45;;;;;;;;;25.00;21.00;;;;;;;;116692;1203;25353;-65
2022/12/31 07:26:34;;;;;;;;;28.33;23.00;;;;;;;;116742;1206;25460;-65
2022/12/31 07:29:20;;;;;;;;;23.00;19.00;;;;;;;;116759;1198;25625;-67
2022/12/31 07:31:55;;;;;;;;;23.67;20.33;;;;;;;;116819;1203;25555;-64
2022/12/31 07:34:49;;;;;;;;;32.00;22.00;;;;;;;;116742;1200;25583;-67
2022/12/31 07:37:47;;;;;;;;;28.50;23.00;;;;;;;;116663;1202;25696;-64
2022/12/31 07:40:45;;;;;;;;;22.00;21.00;;;;;;;;116723;1200;24935;-66
2022/12/31 07:43:26;;;;;;;;;23.50;19.50;;;;;;;;116718;1203;24742;-66
2022/12/31 07:46:20;;;;;;;;;21.00;16.00;;;;;;;;116719;1199;24789;-66
2022/12/31 07:48:49;;;;;;;;;37.00;32.00;;;;;;;;116747;1197;25086;-66
2022/12/31 07:51:18;;;;;;;;;29.00;25.00;;;;;;;;116747;1208;24791;-64
2022/12/31 07:53:46;;;;;;;;;27.00;23.00;;;;;;;;116772;1203;25412;-64
2022/12/31 07:56:14;;;;;;;;;21.00;15.00;;;;;;;;116760;1196;25371;-64
2022/12/31 07:59:21;;;;;;;;;23.25;21.00;;;;;;;;116784;1198;25532;-64
2022/12/31 08:02:22;;;;;;;;;22.50;18.50;;;;;;;;116770;1194;24784;-64
2022/12/31 08:05:14;;;;;;;;;29.00;24.67;;;;;;;;116761;1193;24779;-65
2022/12/31 08:07:45;;;;;;;;;18.50;13.50;;;;;;;;116706;1197;25346;-64
2022/12/31 08:10:34;;;;;;;;;23.00;21.00;;;;;;;;116758;1197;25416;-64
2022/12/31 08:13:07;;;;;;;;;22.00;17.50;;;;;;;;116725;1198;24866;-65
2022/12/31 08:15:37;;;;;;;;;24.00;21.50;;;;;;;;116788;1203;25604;-65
2022/12/31 08:18:07;;;;;;;;;20.00;18.00;;;;;;;;116715;1203;25416;-65
2022/12/31 08:20:48;;;;;;;;;25.00;21.67;;;;;;;;116802;1196;25443;-65
2022/12/31 08:23:16;;;;;;;;;29.00;20.00;;;;;;;;116726;1203;25285;-64
2022/12/31 08:26:06;;;;;;;;;26.50;22.00;;;;;;;;116719;1198;25117;-63
2022/12/31 08:28:56;;;;;;;;;32.00;22.00;;;;;;;;116840;1197;25467;-65
2022/12/31 08:31:43;;;;;;;;;21.00;17.00;;;;;;;;116767;1203;25625;-65
2022/12/31 08:34:21;;;;;;;;;15.67;13.33;;;;;;;;116793;1205;24914;-67
2022/12/31 08:37:05;;;;;;;;;17.00;16.00;;;;;;;;116793;1198;25567;-65
2022/12/31 08:39:40;;;;;;;;;21.00;18.50;;;;;;;;116774;1208;25257;-66
2022/12/31 08:42:37;;;;;;;;;21.67;16.00;;;;;;;;116796;1203;25958;-66
2022/12/31 08:45:17;;;;;;;;;20.67;17.00;;;;;;;;116624;1206;24696;-66
2022/12/31 08:47:48;;;;;;;;;25.00;22.00;;;;;;;;116779;1196;24865;-63
2022/12/31 08:50:23;;;;;;;;;23.00;21.00;;;;;;;;116718;1200;25493;-63
2022/12/31 08:52:52;;;;;;;;;18.00;17.00;;;;;;;;117091;1202;24690;-63
2022/12/31 08:55:20;;;;;;;;;24.00;20.50;;;;;;;;116785;1203;24951;-63
2022/12/31 08:58:19;;;;;;;;;23.67;21.00;;;;;;;;116769;1194;25359;-62
2022/12/31 09:00:49;;;;;;;;;26.00;20.00;;;;;;;;116743;1197;25360;-63
2022/12/31 09:03:39;;;;;;;;;19.50;18.00;;;;;;;;117068;1193;25507;-63
2022/12/31 09:06:18;;;;;;;;;47.00;37.00;;;;;;;;116739;1189;25500;-66
2022/12/31 09:09:05;;;;;;;;;33.50;28.50;;;;;;;;116752;1199;25690;-66
2022/12/31 09:11:45;;;;;;;;;24.00;23.50;;;;;;;;116743;1206;24685;-66
2022/12/31 09:14:28;;;;;;;;;34.00;28.00;;;;;;;;116753;1199;25490;-67
2022/12/31 09:17:06;;;;;;;;;33.50;28.00;;;;;;;;116723;1203;25320;-67
2022/12/31 09:19:35;;;;;;;;;41.00;36.00;;;;;;;;117097;1193;25408;-67
2022/12/31 09:22:03;;;;;;;;;39.50;32.00;;;;;;;;116738;1196;25080;-67
2022/12/31 09:24:32;;;;;;;;;48.00;38.00;;;;;;;;116730;1208;24972;-66
2022/12/31 09:27:31;;;;;;;;;47.00;37.00;;;;;;;;116742;1203;25050;-67
2022/12/31 09:30:11;;;;;;;;;46.00;36.00;;;;;;;;117046;1201;25671;-67
2022/12/31 09:32:51;;;;;;;;;44.00;36.50;;;;;;;;116782;1208;25399;-67
2022/12/31 09:35:39;;;;;;;;;55.00;44.00;;;;;;;;116779;1200;24981;-66
2022/12/31 09:38:31;;;;;;;;;44.50;38.00;;;;;;;;116715;1196;25566;-67
2022/12/31 09:41:23;;;;;;;;;55.50;42.00;;;;;;;;116739;1193;25403;-67
2022/12/31 09:44:13;;;;;;;;;53.50;44.50;;;;;;;;116733;1199;25676;-66
2022/12/31 09:47:03;;;;;;;;;54.00;45.00;;;;;;;;116726;1197;25532;-66
2022/12/31 09:49:53;;;;;;;;;59.00;46.00;;;;;;;;116730;1198;24999;-66
2022/12/31 09:53:05;;;;;;;;;62.67;46.33;;;;;;;;116744;1193;25535;-66
2022/12/31 09:55:51;;;;;;;;;59.00;46.67;;;;;;;;116783;1200;25321;-66
2022/12/31 09:58:28;;;;;;;;;58.00;46.00;;;;;;;;116775;1197;24851;-67
2022/12/31 10:01:14;;;;;;;;;61.00;46.00;;;;;;;;116753;1200;24775;-67
2022/12/31 10:04:04;;;;;;;;;55.00;44.00;;;;;;;;116791;1200;25474;-65
2022/12/31 10:06:51;;;;;;;;;59.50;45.00;;;;;;;;116732;1195;24892;-67
2022/12/31 10:09:53;;;;;;;;;61.50;46.00;;;;;;;;116818;1208;25334;-67
2022/12/31 10:12:36;;;;;;;;;54.50;41.50;;;;;;;;116744;1199;24839;-67
2022/12/31 10:15:42;;;;;;;;;51.00;44.00;;;;;;;;116797;1195;26781;-67
2022/12/31 10:18:22;;;;;;;;;61.00;47.00;;;;;;;;116769;1208;25194;-67
2022/12/31 10:21:10;;;;;;;;;61.50;46.50;;;;;;;;116770;1199;25437;-67
2022/12/31 10:24:03;;;;;;;;;61.00;47.00;;;;;;;;116768;1199;25539;-67
2022/12/31 10:26:56;;;;;;;;;59.00;45.50;;;;;;;;116771;1193;24764;-67
2022/12/31 10:29:30;;;;;;;;;58.50;47.00;;;;;;;;116768;1203;24678;-67
2022/12/31 10:32:11;;;;;;;;;58.00;46.00;;;;;;;;116770;1203;25096;-67
2022/12/31 10:34:52;;;;;;;;;57.00;45.00;;;;;;;;116777;1195;28193;-67
2022/12/31 10:37:32;;;;;;;;;63.00;46.00;;;;;;;;116758;1203;25994;-67
2022/12/31 10:40:06;;;;;;;;;63.00;47.00;;;;;;;;116792;1207;24885;-67
2022/12/31 10:43:06;;;;;;;;;56.00;42.00;;;;;;;;116778;1206;24961;-66
2022/12/31 10:45:55;;;;;;;;;60.00;46.50;;;;;;;;116775;1197;25117;-68
2022/12/31 10:48:32;;;;;;;;;59.00;45.00;;;;;;;;116783;1206;25427;-67
2022/12/31 10:51:17;;;;;;;;;61.00;46.00;;;;;;;;116768;1198;25618;-69
2022/12/31 10:54:14;;;;;;;;;56.33;44.00;;;;;;;;116740;1198;24915;-66
2022/12/31 10:56:42;;;;;;;;;55.00;43.67;;;;;;;;116785;1203;24891;-69
2022/12/31 10:59:32;;;;;;;;;58.50;43.00;;;;;;;;116673;1208;25425;-64
2022/12/31 11:02:52;;;;;;;;;56.00;44.00;;;;;;;;116748;1208;24806;-65
2022/12/31 11:05:45;;;;;;;;;53.00;43.00;;;;;;;;116556;1203;24693;-65
2022/12/31 11:08:38;;;;;;;;;57.50;43.50;;;;;;;;116552;1209;24765;-62
2022/12/31 11:11:21;;;;;;;;;52.00;40.00;;;;;;;;116999;1193;25284;-63
2022/12/31 11:14:26;;;;;;;;;59.50;45.50;;;;;;;;116768;1195;24811;-63
2022/12/31 11:17:21;;;;;;;;;55.00;44.50;;;;;;;;116731;1208;24944;-65
2022/12/31 11:20:16;;;;;;;;;52.00;42.00;;;;;;;;116799;1204;25439;-64
2022/12/31 11:23:12;;;;;;;;;48.67;39.33;;;;;;;;116722;1196;24809;-64
2022/12/31 11:26:19;;;;;;;;;54.67;43.00;;;;;;;;116677;1193;25244;-65
2022/12/31 11:29:00;;;;;;;;;51.00;39.50;;;;;;;;116626;1199;24704;-63
2022/12/31 11:32:00;;;;;;;;;57.50;43.00;;;;;;;;116681;1193;24696;-64
2022/12/31 11:35:03;;;;;;;;;52.00;40.50;;;;;;;;116533;1208;24827;-63
2022/12/31 11:37:44;;;;;;;;;52.50;38.50;;;;;;;;116730;1206;24835;-63
2022/12/31 11:40:30;;;;;;;;;50.50;41.00;;;;;;;;116815;1197;25098;-64
2022/12/31 11:43:08;;;;;;;;;49.00;38.50;;;;;;;;116763;1203;25047;-70
2022/12/31 11:46:05;;;;;;;;;53.00;41.00;;;;;;;;116783;1200;24791;-68
2022/12/31 11:48:36;;;;;;;;;56.00;42.00;;;;;;;;116772;1208;25331;-63
2022/12/31 11:51:05;;;;;;;;;45.00;39.00;;;;;;;;116742;1200;24677;-64
2022/12/31 11:53:46;;;;;;;;;48.50;39.50;;;;;;;;116754;1198;24936;-64
2022/12/31 11:56:19;;;;;;;;;49.00;40.00;;;;;;;;116825;1193;24765;-63
2022/12/31 11:58:51;;;;;;;;;48.50;36.00;;;;;;;;116798;1200;25230;-64
2022/12/31 12:01:26;;;;;;;;;49.00;37.00;;;;;;;;116774;1198;25588;-63
2022/12/31 12:03:54;;;;;;;;;44.50;34.50;;;;;;;;116791;1200;24968;-63
2022/12/31 12:06:27;;;;;;;;;44.00;35.00;;;;;;;;116740;1199;25594;-64
2022/12/31 12:09:03;;;;;;;;;44.50;33.50;;;;;;;;116773;1203;25380;-63
2022/12/31 12:11:34;;;;;;;;;43.67;36.00;;;;;;;;116777;1203;24835;-62
2022/12/31 12:14:35;;;;;;;;;47.50;38.50;;;;;;;;116778;1193;24689;-67
2022/12/31 12:17:09;;;;;;;;;46.50;37.50;;;;;;;;116776;1199;25460;-67
2022/12/31 12:19:42;;;;;;;;;40.67;36.00;;;;;;;;116796;1193;24957;-63
2022/12/31 12:22:13;;;;;;;;;49.00;35.00;;;;;;;;116730;1198;25240;-64
2022/12/31 12:24:52;;;;;;;;;45.00;35.00;;;;;;;;116738;1198;25162;-61
2022/12/31 12:27:23;;;;;;;;;48.50;37.00;;;;;;;;116770;1189;25086;-62
2022/12/31 12:29:51;;;;;;;;;39.00;34.00;;;;;;;;116761;1191;24936;-63
2022/12/31 12:32:23;;;;;;;;;47.00;36.00;;;;;;;;116740;1196;25023;-63
2022/12/31 12:34:52;;;;;;;;;43.50;34.50;;;;;;;;116739;1199;25006;-63
2022/12/31 12:37:23;;;;;;;;;41.50;35.50;;;;;;;;116769;1204;25087;-63
2022/12/31 12:40:19;;;;;;;;;43.00;34.50;;;;;;;;116717;1202;25061;-66
2022/12/31 12:42:48;;;;;;;;;45.50;35.50;;;;;;;;116676;1205;25237;-63
2022/12/31 12:45:20;;;;;;;;;48.00;35.00;;;;;;;;116787;1198;24796;-64
2022/12/31 12:47:54;;;;;;;;;49.00;37.00;;;;;;;;116754;1206;25434;-63
2022/12/31 12:50:31;;;;;;;;;51.00;38.50;;;;;;;;116768;1200;24838;-62
2022/12/31 12:53:11;;;;;;;;;36.00;32.00;;;;;;;;116725;1196;24926;-64
2022/12/31 12:55:51;;;;;;;;;44.50;34.00;;;;;;;;116766;1193;25402;-65
2022/12/31 12:58:24;;;;;;;;;47.00;36.00;;;;;;;;116765;1193;25461;-62
2022/12/31 13:01:30;;;;;;;;;50.00;37.00;;;;;;;;116810;1196;25333;-60
2022/12/31 13:04:07;;;;;;;;;35.50;31.00;;;;;;;;116739;1193;25085;-62
2022/12/31 13:07:04;;;;;;;;;30.00;28.00;;;;;;;;116736;1198;24779;-63
2022/12/31 13:09:48;;;;;;;;;34.00;28.00;;;;;;;;116789;1203;24954;-62
2022/12/31 13:12:28;;;;;;;;;39.00;32.00;;;;;;;;116760;1199;25546;-61
2022/12/31 13:15:26;;;;;;;;;35.50;26.00;;;;;;;;116778;1200;24845;-62
2022/12/31 13:18:00;;;;;;;;;35.00;27.00;;;;;;;;116739;1203;24807;-61
2022/12/31 13:20:32;;;;;;;;;37.00;31.00;;;;;;;;116755;1208;24961;-62
2022/12/31 13:23:26;;;;;;;;;34.50;32.00;;;;;;;;116739;1200;25274;-64
2022/12/31 13:26:25;;;;;;;;;41.50;29.00;;;;;;;;116723;1200;25514;-63
2022/12/31 13:28:54;;;;;;;;;38.00;30.00;;;;;;;;116790;1200;25440;-60
2022/12/31 13:31:29;;;;;;;;;40.00;30.50;;;;;;;;116750;1200;25438;-66
2022/12/31 13:34:01;;;;;;;;;34.50;28.50;;;;;;;;116778;1196;25372;-74
2022/12/31 13:36:32;;;;;;;;;52.50;41.00;;;;;;;;116801;1196;25290;-74
2022/12/31 13:39:01;;;;;;;;;45.00;31.00;;;;;;;;116783;1208;24875;-74
2022/12/31 13:41:35;;;;;;;;;41.00;30.00;;;;;;;;116759;1208;24839;-74
2022/12/31 13:44:42;;;;;;;;;42.50;31.50;;;;;;;;116790;1197;25662;-72
2022/12/31 13:47:51;;;;;;;;;28.00;22.50;;;;;;;;116633;1200;24789;-73
2022/12/31 13:50:30;;;;;;;;;;;;;;;;;;116574;1203;24830;-74
2022/12/31 13:53:19;;;;;;;;;70.00;52.00;;;;;;;;116425;1209;25244;-73
2022/12/31 13:56:00;;;;;;;;;69.50;52.50;;;;;;;;116563;1202;24793;-74
2022/12/31 13:59:02;;;;;;;;;76.00;56.00;;;;;;;;116640;1203;24730;-73
2022/12/31 14:01:40;;;;;;;;;70.50;55.00;;;;;;;;116769;1208;25534;-74
2022/12/31 14:04:14;;;;;;;;;76.00;61.00;;;;;;;;116570;1199;25602;-69
2022/12/31 14:07:10;;;;;;;;;77.00;58.25;;;;;;;;116796;1199;25195;-69
2022/12/31 14:09:38;;;;;;;;;77.00;59.33;;;;;;;;116812;1208;25247;-69
2022/12/31 14:12:25;;;;;;;;;80.00;61.00;;;;;;;;116795;1193;24788;-68
2022/12/31 14:15:31;;;;;;;;;74.00;57.50;;;;;;;;116764;1196;25642;-68
2022/12/31 14:18:26;;;;;;;;;81.00;61.00;;;;;;;;116783;1196;25469;-71
2022/12/31 14:21:03;;;;;;;;;73.75;62.25;;;;;;;;116776;1208;25137;-70
2022/12/31 14:23:38;;;;;;;;;80.00;61.00;;;;;;;;116785;1200;24814;-70
2022/12/31 14:26:14;;;;;;;;;73.00;57.00;;;;;;;;116806;1200;25127;-70
2022/12/31 14:29:04;;;;;;;;;75.00;57.50;;;;;;;;116798;1198;24803;-71
2022/12/31 14:31:38;;;;;;;;;74.00;59.00;;;;;;;;116781;1194;25343;-69
2022/12/31 14:34:18;;;;;;;;;78.50;64.50;;;;;;;;116785;1200;24742;-72
2022/12/31 14:36:46;;;;;;;;;75.00;56.00;;;;;;;;116779;1197;25092;-71
2022/12/31 14:39:26;;;;;;;;;75.67;59.67;;;;;;;;116753;1200;25384;-72
2022/12/31 14:41:59;;;;;;;;;77.00;63.00;;;;;;;;116754;1197;25491;-68
2022/12/31 14:44:55;;;;;;;;;81.00;65.00;;;;;;;;116812;1207;25501;-72
2022/12/31 14:48:04;;;;;;;;;78.00;59.67;;;;;;;;116736;1200;25053;-73
2022/12/31 14:50:33;;;;;;;;;79.50;63.25;;;;;;;;116664;1206;25031;-74
2022/12/31 14:53:01;;;;;;;;;78.50;61.00;;;;;;;;116789;1198;25167;-71
2022/12/31 14:55:32;;;;;;;;;77.50;60.50;;;;;;;;116729;1208;25638;-68
2022/12/31 14:58:15;;;;;;;;;71.00;56.50;;;;;;;;116850;1202;24713;-70
2022/12/31 15:01:25;;;;;;;;;79.00;62.50;;;;;;;;116764;1200;24891;-74
2022/12/31 15:03:56;;;;;;;;;77.00;57.00;;;;;;;;116659;1208;25183;-76
2022/12/31 15:06:44;;;;;;;;;77.00;59.00;;;;;;;;116767;1199;25048;-78
2022/12/31 15:09:41;;;;;;;;;75.00;57.50;;;;;;;;116777;1208;24678;-75
2022/12/31 15:12:27;;;;;;;;;76.50;61.00;;;;;;;;116785;1198;24732;-74
2022/12/31 15:14:59;;;;;;;;;73.50;57.00;;;;;;;;116761;1200;24754;-75
2022/12/31 15:18:01;;;;;;;;;73.00;57.50;;;;;;;;116732;1195;25329;-77
2022/12/31 15:20:37;;;;;;;;;75.00;59.00;;;;;;;;116726;1208;24769;-76
2022/12/31 15:23:35;;;;;;;;;72.00;54.00;;;;;;;;116717;1195;25052;-76